Time;durP1;ratioP1;P1;durP2;ratioP2;P2;SDS_P1;SDS_P2;PMS_P1;PMS_P2;Temp;Humidity;BMP_temperature;BMP_pressure;BME280_temperature;BME280_humidity;BME280_pressure;Samples;Min_cycle;Max_cycle;Signal;HPM_P1;HPM_P2
2020/12/27 00:02:17;;;;;;;10.70;8.38;;;0.10;99.90;;;;;;4955755;28;20224;-90
2020/12/27 00:04:46;;;;;;;14.15;8.07;;;0.10;99.90;;;;;;4955367;28;20201;-90
2020/12/27 00:07:14;;;;;;;11.57;9.05;;;0.20;99.90;;;;;;4955695;28;20197;-94
2020/12/27 00:09:42;;;;;;;13.68;9.35;;;0.10;99.90;;;;;;4955886;28;20573;-91
2020/12/27 00:12:09;;;;;;;12.68;9.30;;;0.10;99.90;;;;;;4955599;29;20636;-91
2020/12/27 00:14:37;;;;;;;13.13;10.52;;;0.10;99.90;;;;;;4955865;29;20205;-92
2020/12/27 00:17:04;;;;;;;12.88;9.68;;;0.00;99.90;;;;;;4955897;29;20233;-93
2020/12/27 00:19:30;;;;;;;11.88;10.02;;;0.00;99.90;;;;;;4956280;29;20205;-92
2020/12/27 00:21:58;;;;;;;11.75;8.75;;;0.00;99.90;;;;;;4956257;29;20214;-92
2020/12/27 00:24:25;;;;;;;14.18;10.35;;;0.00;99.90;;;;;;4956054;28;20209;-92
2020/12/27 00:26:52;;;;;;;9.30;8.30;;;-0.10;99.90;;;;;;4956376;28;20646;-92
2020/12/27 00:29:22;;;;;;;12.15;9.40;;;-0.10;99.90;;;;;;4955858;29;20208;-93
2020/12/27 00:31:49;;;;;;;11.05;9.43;;;0.00;99.90;;;;;;4956653;28;20229;-93
2020/12/27 00:34:15;;;;;;;10.82;9.00;;;0.00;99.90;;;;;;4956031;29;20316;-93
2020/12/27 00:36:42;;;;;;;16.45;10.43;;;-0.10;99.90;;;;;;4955380;28;20221;-92
2020/12/27 00:39:08;;;;;;;11.52;8.95;;;0.00;99.90;;;;;;4955546;29;20665;-94
2020/12/27 00:41:34;;;;;;;12.00;9.27;;;-0.10;99.90;;;;;;4955769;29;20240;-94
2020/12/27 00:44:02;;;;;;;17.00;9.80;;;-0.10;99.90;;;;;;4955699;29;20637;-93
2020/12/27 00:46:29;;;;;;;14.73;9.77;;;-0.10;99.90;;;;;;4955412;29;20686;-93
2020/12/27 00:48:55;;;;;;;12.65;8.93;;;-0.10;99.90;;;;;;4955533;28;20667;-93
2020/12/27 00:51:21;;;;;;;14.65;10.18;;;-0.10;99.90;;;;;;4955148;29;20579;-92
2020/12/27 00:53:47;;;;;;;10.35;8.23;;;-0.10;99.90;;;;;;4958924;29;20194;-92
2020/12/27 00:56:14;;;;;;;10.07;7.88;;;-0.10;99.90;;;;;;4963570;29;20221;-92
2020/12/27 00:58:40;;;;;;;9.63;7.57;;;-0.20;99.90;;;;;;4962987;28;20201;-92
2020/12/27 01:01:07;;;;;;;10.98;7.47;;;-0.20;99.90;;;;;;4962864;29;20244;-92
2020/12/27 01:03:34;;;;;;;10.93;8.38;;;-0.10;99.90;;;;;;4946365;29;20193;-92
2020/12/27 01:06:00;;;;;;;10.48;7.88;;;-0.10;99.90;;;;;;4955252;29;20256;-91
2020/12/27 01:08:27;;;;;;;11.93;7.75;;;-0.10;99.90;;;;;;4955498;29;20201;-92
2020/12/27 01:10:53;;;;;;;11.70;7.53;;;-0.10;99.90;;;;;;4955548;29;20220;-92
2020/12/27 01:13:20;;;;;;;9.77;8.57;;;-0.10;99.90;;;;;;4956387;28;20216;-92
2020/12/27 01:15:46;;;;;;;13.52;9.07;;;-0.10;99.90;;;;;;4962671;28;20225;-91
2020/12/27 01:18:14;;;;;;;10.40;8.63;;;-0.10;99.90;;;;;;4970350;28;20273;-91
2020/12/27 01:20:40;;;;;;;10.65;8.20;;;-0.20;99.90;;;;;;4977260;28;20181;-93
2020/12/27 01:23:06;;;;;;;12.05;9.95;;;-0.20;99.90;;;;;;4954600;29;20205;-91
2020/12/27 01:25:33;;;;;;;10.95;8.95;;;-0.20;99.90;;;;;;4954771;29;20197;-92
2020/12/27 01:27:59;;;;;;;11.35;9.02;;;-0.20;99.90;;;;;;4954585;28;20201;-93
2020/12/27 01:30:25;;;;;;;10.60;8.90;;;-0.20;99.90;;;;;;4954659;29;20216;-92
2020/12/27 01:32:52;;;;;;;12.48;8.80;;;-0.20;99.90;;;;;;4954776;29;20217;-93
2020/12/27 01:35:19;;;;;;;11.10;8.13;;;-0.30;99.90;;;;;;4954268;29;20224;-93
2020/12/27 01:37:45;;;;;;;12.60;9.10;;;-0.30;99.90;;;;;;4955152;29;20241;-93
2020/12/27 01:40:11;;;;;;;12.25;9.25;;;-0.20;99.90;;;;;;4954705;28;20208;-93
2020/12/27 01:42:38;;;;;;;20.77;8.85;;;-0.20;99.90;;;;;;4954756;28;20237;-92
2020/12/27 01:45:05;;;;;;;13.90;8.55;;;-0.20;99.90;;;;;;4954912;29;20201;-92
2020/12/27 01:47:34;;;;;;;8.77;7.35;;;-0.60;99.90;;;;;;4954977;28;20205;-92
2020/12/27 01:50:01;;;;;;;9.90;7.70;;;-0.20;99.90;;;;;;4955421;29;20224;-91
2020/12/27 01:52:31;;;;;;;11.80;8.50;;;-0.20;99.90;;;;;;4955006;28;20224;-92
2020/12/27 01:54:57;;;;;;;8.30;7.25;;;-0.30;99.90;;;;;;4954164;28;20201;-92
2020/12/27 01:57:44;;;;;;;12.20;8.55;;;-0.30;99.90;;;;;;4954300;29;20225;-92
2020/12/27 02:00:10;;;;;;;11.20;7.30;;;-0.30;99.90;;;;;;4951085;29;20201;-92
2020/12/27 02:02:36;;;;;;;9.02;7.43;;;-0.20;99.90;;;;;;4954333;29;20224;-92
2020/12/27 02:05:03;;;;;;;9.60;7.03;;;-0.20;99.90;;;;;;4954287;29;20205;-92
2020/12/27 02:07:29;;;;;;;10.77;7.13;;;-0.30;99.90;;;;;;4954213;29;20197;-93
2020/12/27 02:10:01;;;;;;;9.13;7.40;;;-0.20;99.90;;;;;;4954190;29;20586;-93
2020/12/27 02:12:27;;;;;;;8.98;7.32;;;-0.30;99.90;;;;;;4954203;28;20213;-93
2020/12/27 02:14:54;;;;;;;11.30;5.75;;;-0.30;99.90;;;;;;4954065;28;20202;-93
2020/12/27 02:17:20;;;;;;;8.88;7.32;;;-0.20;99.90;;;;;;4953881;28;20217;-94
2020/12/27 02:19:47;;;;;;;7.28;6.57;;;-0.20;99.90;;;;;;4954002;29;20201;-93
2020/12/27 02:22:13;;;;;;;9.95;7.15;;;-0.20;99.90;;;;;;4953833;29;20264;-93
2020/12/27 02:24:40;;;;;;;9.00;6.55;;;-0.20;99.90;;;;;;4956218;28;20204;-94
2020/12/27 02:27:08;;;;;;;11.75;7.60;;;-0.20;99.90;;;;;;4953508;28;20317;-93
2020/12/27 02:29:36;;;;;;;7.68;6.07;;;-0.30;99.90;;;;;;4953721;29;20629;-93
2020/12/27 02:32:03;;;;;;;10.60;7.10;;;-0.30;99.90;;;;;;4954022;29;20221;-92
2020/12/27 02:34:30;;;;;;;8.88;7.05;;;-0.20;99.90;;;;;;4953592;28;20620;-92
2020/12/27 02:36:57;;;;;;;7.60;6.20;;;-0.30;99.90;;;;;;4954019;29;20225;-93
2020/12/27 02:39:24;;;;;;;9.50;7.47;;;-0.20;99.90;;;;;;4953552;28;20197;-93
2020/12/27 02:41:55;;;;;;;8.52;6.07;;;-0.30;99.90;;;;;;4953633;29;20217;-92
2020/12/27 02:44:21;;;;;;;9.38;6.85;;;-0.30;99.90;;;;;;4953783;29;20206;-92
2020/12/27 02:46:48;;;;;;;9.27;7.53;;;-0.30;99.90;;;;;;4953809;28;20209;-91
2020/12/27 02:49:14;;;;;;;8.90;7.32;;;-0.30;99.90;;;;;;4954238;29;20209;-92
2020/12/27 02:51:41;;;;;;;10.27;6.80;;;-0.30;99.90;;;;;;4953223;29;20272;-92
2020/12/27 02:54:07;;;;;;;10.43;7.70;;;-0.30;99.90;;;;;;4953866;28;20583;-92
2020/12/27 02:56:36;;;;;;;9.65;7.35;;;-0.30;99.90;;;;;;4953541;29;20220;-93
2020/12/27 02:59:03;;;;;;;7.15;5.65;;;-0.30;99.90;;;;;;4954530;29;20222;-92
2020/12/27 03:01:29;;;;;;;8.43;5.85;;;-0.30;99.90;;;;;;4954584;28;20229;-91
2020/12/27 03:03:56;;;;;;;6.85;6.15;;;-0.20;99.90;;;;;;4955350;29;20288;-94
2020/12/27 03:06:22;;;;;;;7.53;6.05;;;-0.30;99.90;;;;;;4953631;29;20217;-92
2020/12/27 03:08:54;;;;;;;9.20;7.25;;;-0.30;99.90;;;;;;4953457;28;20685;-92
2020/12/27 03:11:21;;;;;;;8.95;6.75;;;-0.30;99.90;;;;;;4953809;29;20253;-92
2020/12/27 03:13:47;;;;;;;7.68;6.95;;;-0.30;99.90;;;;;;4953705;28;20274;-93
2020/12/27 03:16:23;;;;;;;6.65;5.95;;;-0.30;99.90;;;;;;4953344;29;20217;-91
2020/12/27 03:18:57;;;;;;;8.10;6.90;;;-0.30;99.90;;;;;;4954126;29;20679;-91
2020/12/27 03:21:28;;;;;;;8.60;6.63;;;-0.30;99.90;;;;;;4953407;28;20275;-92
2020/12/27 03:23:54;;;;;;;11.20;7.63;;;-0.40;99.90;;;;;;4953737;29;20691;-92
2020/12/27 03:26:21;;;;;;;8.10;6.32;;;-0.40;99.90;;;;;;4953777;28;20205;-93
2020/12/27 03:31:53;;;;;;;7.40;6.70;;;-0.40;99.90;;;;;;4960442;28;20213;-93
2020/12/27 03:34:22;;;;;;;10.02;7.35;;;-0.40;99.90;;;;;;4977894;28;20174;-93
2020/12/27 03:36:57;;;;;;;8.60;6.32;;;-0.40;99.90;;;;;;4953480;29;20224;-92
2020/12/27 03:39:36;;;;;;;9.80;6.80;;;-0.40;99.90;;;;;;4937709;29;20201;-93
2020/12/27 03:42:02;;;;;;;7.78;6.50;;;-0.40;99.90;;;;;;4957618;29;20233;-92
2020/12/27 03:44:51;;;;;;;10.63;7.80;;;-0.50;99.90;;;;;;4957745;29;20497;-92
2020/12/27 03:47:18;;;;;;;11.70;8.32;;;-0.50;99.90;;;;;;4956975;29;20329;-91
2020/12/27 03:49:51;;;;;;;9.02;6.90;;;-0.50;99.90;;;;;;4956977;29;20201;-92
2020/12/27 03:52:31;;;;;;;9.63;7.88;;;-0.50;99.90;;;;;;4956652;28;20686;-92
2020/12/27 03:54:57;;;;;;;10.27;7.55;;;-0.60;99.90;;;;;;4956732;29;20260;-92
2020/12/27 03:57:24;;;;;;;8.60;7.30;;;-0.60;99.90;;;;;;4956747;29;20218;-92
2020/12/27 03:59:50;;;;;;;7.70;6.72;;;-0.60;99.90;;;;;;4956611;29;20252;-92
2020/12/27 04:02:16;;;;;;;11.68;7.95;;;-0.60;99.90;;;;;;4956283;28;20220;-91
2020/12/27 04:04:50;;;;;;;10.27;7.30;;;-0.60;99.90;;;;;;4956331;29;20241;-92
2020/12/27 04:07:16;;;;;;;11.05;7.53;;;-0.60;99.90;;;;;;4956515;29;20301;-91
2020/12/27 04:09:42;;;;;;;11.05;7.72;;;-0.60;99.90;;;;;;4956013;29;20201;-91
2020/12/27 04:12:13;;;;;;;11.02;6.72;;;-0.70;99.90;;;;;;4956611;29;20713;-91
2020/12/27 04:14:39;;;;;;;11.85;7.68;;;-0.70;99.90;;;;;;4956215;29;20244;-93
2020/12/27 04:17:06;;;;;;;8.88;7.10;;;-0.70;99.90;;;;;;4956813;29;20691;-91
2020/12/27 04:19:32;;;;;;;9.43;6.32;;;-0.70;99.90;;;;;;4956071;29;20190;-92
2020/12/27 04:21:59;;;;;;;8.32;5.90;;;-0.70;99.90;;;;;;4956121;29;20765;-92
2020/12/27 04:24:25;;;;;;;7.90;6.28;;;-0.70;99.90;;;;;;4955957;28;20206;-92
2020/12/27 04:26:52;;;;;;;7.22;5.60;;;-0.70;99.90;;;;;;4955893;28;20196;-92
2020/12/27 04:29:18;;;;;;;10.02;7.03;;;-0.70;99.90;;;;;;4956001;29;20334;-92
2020/12/27 04:31:44;;;;;;;13.07;9.35;;;-0.70;99.90;;;;;;4955699;28;20576;-92
2020/12/27 04:34:11;;;;;;;8.73;6.70;;;-0.70;99.90;;;;;;4955748;28;20198;-90
2020/12/27 04:36:37;;;;;;;6.90;6.20;;;-0.70;99.90;;;;;;4956140;28;20305;-92
2020/12/27 04:39:04;;;;;;;9.43;6.32;;;-0.70;99.90;;;;;;4955628;29;20250;-93
2020/12/27 04:41:31;;;;;;;7.13;6.15;;;-0.70;99.90;;;;;;4955406;29;20252;-92
2020/12/27 04:43:57;;;;;;;7.47;5.80;;;-0.70;99.90;;;;;;4955506;29;20572;-92
2020/12/27 04:46:23;;;;;;;7.40;5.57;;;-0.70;99.90;;;;;;4954943;28;20235;-91
2020/12/27 04:48:53;;;;;;;8.10;6.30;;;-0.60;99.90;;;;;;4955488;29;20201;-92
2020/12/27 04:51:20;;;;;;;9.82;7.65;;;-0.60;99.90;;;;;;4946540;28;20225;-92
2020/12/27 04:53:46;;;;;;;8.43;6.80;;;-0.60;99.90;;;;;;4955188;28;20220;-94
2020/12/27 04:56:16;;;;;;;7.45;6.15;;;-0.70;99.90;;;;;;4954392;29;20737;-92
2020/12/27 04:58:42;;;;;;;7.93;7.13;;;-0.70;99.90;;;;;;4954956;29;20694;-90
2020/12/27 05:01:09;;;;;;;7.53;6.28;;;-0.70;99.90;;;;;;4954772;28;20226;-93
2020/12/27 05:03:35;;;;;;;7.13;6.25;;;-0.70;99.90;;;;;;4954853;29;20202;-92
2020/12/27 05:06:01;;;;;;;9.85;6.70;;;-0.70;99.90;;;;;;4954537;28;20239;-91
2020/12/27 05:08:27;;;;;;;8.07;6.22;;;-0.70;99.90;;;;;;4955138;29;20205;-92
2020/12/27 05:10:54;;;;;;;7.60;6.90;;;-0.70;99.90;;;;;;4954886;28;20270;-92
2020/12/27 05:13:21;;;;;;;8.68;5.80;;;-0.70;99.90;;;;;;4954690;29;20198;-94
2020/12/27 05:15:47;;;;;;;8.90;6.53;;;-0.60;99.90;;;;;;4954555;28;20279;-92
2020/12/27 05:18:13;;;;;;;8.75;6.68;;;-0.60;99.90;;;;;;4954548;28;20201;-92
2020/12/27 05:20:41;;;;;;;8.55;5.95;;;-0.60;99.90;;;;;;4954822;28;20220;-93
2020/12/27 05:23:08;;;;;;;8.27;6.43;;;-0.80;99.90;;;;;;4954596;29;20663;-91
2020/12/27 05:25:38;;;;;;;10.65;7.72;;;-0.70;99.90;;;;;;4952639;28;20224;-92
2020/12/27 05:28:06;;;;;;;8.82;6.25;;;-0.80;99.90;;;;;;4947029;29;20198;-91
2020/12/27 05:30:34;;;;;;;12.43;7.72;;;-0.70;99.90;;;;;;4956850;28;20198;-90
2020/12/27 05:33:01;;;;;;;8.65;6.07;;;-0.60;99.90;;;;;;4955336;29;20221;-92
2020/12/27 05:35:27;;;;;;;8.30;6.40;;;-0.60;99.90;;;;;;4954840;29;20206;-92
2020/12/27 05:37:53;;;;;;;8.10;6.18;;;-0.60;99.90;;;;;;4954358;28;20194;-92
2020/12/27 05:40:20;;;;;;;9.68;6.70;;;-0.60;99.90;;;;;;4957344;29;20525;-93
2020/12/27 05:42:47;;;;;;;6.90;6.10;;;-0.60;99.90;;;;;;4958323;29;20229;-91
2020/12/27 05:45:15;;;;;;;9.75;5.97;;;-0.60;99.90;;;;;;4978167;28;20216;-92
2020/12/27 05:47:43;;;;;;;11.98;6.20;;;-0.60;99.90;;;;;;4961237;29;20198;-91
2020/12/27 05:50:14;;;;;;;7.20;6.28;;;-0.60;99.90;;;;;;4954138;29;20229;-92
2020/12/27 05:52:45;;;;;;;7.88;5.85;;;-0.50;99.90;;;;;;4954293;29;20276;-92
2020/12/27 05:55:17;;;;;;;7.80;6.50;;;-0.50;99.90;;;;;;4953837;28;20284;-92
2020/12/27 05:57:47;;;;;;;8.98;6.20;;;-0.50;99.90;;;;;;4953808;29;20216;-92
2020/12/27 06:00:18;;;;;;;10.07;7.82;;;-0.50;99.90;;;;;;4953994;28;20197;-91
2020/12/27 06:02:45;;;;;;;8.32;6.20;;;-0.60;99.90;;;;;;4953881;28;20276;-91
2020/12/27 06:05:13;;;;;;;8.45;6.45;;;-0.50;99.90;;;;;;4953522;29;20201;-92
2020/12/27 06:07:42;;;;;;;6.88;6.13;;;-0.50;99.90;;;;;;4953976;28;20623;-92
2020/12/27 06:10:20;;;;;;;9.95;7.07;;;-0.50;99.90;;;;;;4953739;28;20201;-91
2020/12/27 06:13:27;;;;;;;7.03;6.30;;;-0.50;99.90;;;;;;4953795;28;20225;-91
2020/12/27 06:15:56;;;;;;;8.13;6.95;;;-0.50;99.90;;;;;;4952842;29;20260;-91
2020/12/27 06:18:27;;;;;;;10.60;7.15;;;-0.50;99.90;;;;;;4953577;29;20281;-93
2020/12/27 06:21:07;;;;;;;10.43;6.95;;;-0.50;99.90;;;;;;4952354;29;20285;-92
2020/12/27 06:23:33;;;;;;;8.68;5.95;;;-0.50;99.90;;;;;;4952356;29;20220;-91
2020/12/27 06:26:02;;;;;;;8.13;6.50;;;-0.50;99.90;;;;;;4956526;28;20216;-92
2020/12/27 06:28:29;;;;;;;9.57;6.90;;;-0.40;99.90;;;;;;4957027;28;20292;-91
2020/12/27 06:30:57;;;;;;;7.97;6.95;;;-0.40;99.90;;;;;;4957687;29;20208;-92
2020/12/27 06:33:28;;;;;;;6.88;6.15;;;-0.40;99.90;;;;;;4954827;28;20198;-92
2020/12/27 06:35:54;;;;;;;8.40;6.60;;;-0.40;99.90;;;;;;4950167;29;20225;-93
2020/12/27 06:38:22;;;;;;;8.75;7.32;;;-0.30;99.90;;;;;;4953785;28;20201;-93
2020/12/27 06:40:55;;;;;;;7.45;5.03;;;-0.40;99.90;;;;;;4953594;29;20190;-92
2020/12/27 06:43:23;;;;;;;8.68;6.88;;;-0.40;99.90;;;;;;4948576;29;20212;-92
2020/12/27 06:45:49;;;;;;;8.50;7.47;;;-0.40;99.90;;;;;;4944234;28;20252;-92
2020/12/27 06:48:32;;;;;;;7.53;6.32;;;-0.40;99.90;;;;;;4955009;28;20201;-91
2020/12/27 06:50:58;;;;;;;7.80;6.32;;;-0.30;99.90;;;;;;4947039;29;20914;-92
2020/12/27 06:53:41;;;;;;;10.40;6.68;;;-0.30;99.90;;;;;;4953053;28;20213;-93
2020/12/27 06:56:10;;;;;;;7.15;6.10;;;-0.30;99.90;;;;;;4950130;28;20765;-92
2020/12/27 06:58:36;;;;;;;10.68;7.22;;;-0.30;99.90;;;;;;4949859;29;20198;-91
2020/12/27 07:01:16;;;;;;;10.50;6.65;;;-0.30;99.90;;;;;;4953472;29;20695;-91
2020/12/27 07:03:44;;;;;;;7.60;6.90;;;-0.40;99.90;;;;;;4953839;29;20197;-90
2020/12/27 07:06:25;;;;;;;9.30;6.50;;;-0.30;99.90;;;;;;4953030;28;20605;-92
2020/12/27 07:08:56;;;;;;;8.07;6.53;;;-0.40;99.90;;;;;;4953689;29;20213;-91
2020/12/27 07:11:24;;;;;;;12.75;6.47;;;-0.30;99.90;;;;;;4951877;28;20221;-92
2020/12/27 07:13:54;;;;;;;8.30;7.38;;;-0.40;99.90;;;;;;4953823;28;20200;-91
2020/12/27 07:16:21;;;;;;;9.65;7.22;;;-0.30;99.90;;;;;;4952626;29;20216;-91
2020/12/27 07:18:49;;;;;;;9.60;6.57;;;-0.30;99.90;;;;;;4956941;29;20261;-92
2020/12/27 07:21:20;;;;;;;8.48;6.72;;;-0.30;99.90;;;;;;4957063;29;20723;-91
2020/12/27 07:24:21;;;;;;;8.32;6.63;;;-0.40;99.90;;;;;;4956937;29;20575;-93
2020/12/27 07:26:49;;;;;;;7.07;6.10;;;-0.30;99.90;;;;;;4959037;28;20259;-92
2020/12/27 07:29:17;;;;;;;8.70;6.55;;;-0.30;99.90;;;;;;4957006;28;20201;-91
2020/12/27 07:31:44;;;;;;;6.78;5.97;;;-0.30;99.90;;;;;;4956616;29;20664;-91
2020/12/27 07:34:13;;;;;;;9.35;6.28;;;-0.30;99.90;;;;;;4956980;28;20638;-92
2020/12/27 07:36:39;;;;;;;8.05;6.43;;;-0.30;99.90;;;;;;4956283;29;20565;-93
2020/12/27 07:39:06;;;;;;;8.88;6.65;;;-0.20;99.90;;;;;;4956700;29;20214;-92
2020/12/27 07:41:37;;;;;;;7.65;6.13;;;-0.20;99.90;;;;;;4956849;29;20221;-92
2020/12/27 07:44:04;;;;;;;8.60;7.55;;;-0.20;99.90;;;;;;4957431;29;20221;-95
2020/12/27 07:47:09;;;;;;;8.00;6.47;;;-0.20;99.90;;;;;;4957077;29;20205;-93
2020/12/27 07:49:35;;;;;;;7.35;5.80;;;-0.10;99.90;;;;;;4938511;28;20213;-91
2020/12/27 07:52:01;;;;;;;7.53;5.93;;;0.00;99.90;;;;;;4951313;29;20256;-92
2020/12/27 07:54:28;;;;;;;8.35;6.10;;;0.00;99.90;;;;;;4959602;29;20204;-93
2020/12/27 07:56:55;;;;;;;7.32;5.30;;;0.10;99.90;;;;;;4963529;28;20245;-92
2020/12/27 07:59:21;;;;;;;6.72;6.00;;;0.20;99.90;;;;;;4981243;28;20217;-92
2020/12/27 08:01:47;;;;;;;6.50;5.80;;;0.20;99.90;;;;;;4962422;28;20305;-92
2020/12/27 08:04:14;;;;;;;9.27;7.05;;;0.30;99.90;;;;;;4960178;29;20284;-92
2020/12/27 08:06:41;;;;;;;8.93;6.70;;;0.30;99.90;;;;;;4956322;29;20194;-93
2020/12/27 08:09:11;;;;;;;11.52;7.50;;;0.20;99.90;;;;;;4956641;29;20264;-92
2020/12/27 08:11:39;;;;;;;8.80;6.93;;;0.20;99.90;;;;;;4957254;29;20580;-93
2020/12/27 08:14:08;;;;;;;7.53;6.72;;;0.20;99.90;;;;;;4956549;28;20679;-93
2020/12/27 08:16:37;;;;;;;9.00;6.90;;;0.30;99.90;;;;;;4946710;29;20222;-93
2020/12/27 08:19:05;;;;;;;7.35;6.65;;;0.30;99.90;;;;;;4948440;29;20620;-92
2020/12/27 08:21:32;;;;;;;7.75;6.70;;;0.30;99.90;;;;;;4956212;28;20305;-93
2020/12/27 08:24:04;;;;;;;9.65;6.60;;;0.20;99.90;;;;;;4956275;29;21404;-93
2020/12/27 08:26:31;;;;;;;9.93;7.65;;;0.20;99.90;;;;;;4955759;28;20194;-93
2020/12/27 08:29:15;;;;;;;9.45;6.78;;;0.30;99.90;;;;;;4956120;29;20213;-92
2020/12/27 08:31:43;;;;;;;8.02;7.20;;;0.30;99.90;;;;;;4956105;29;20721;-93
2020/12/27 08:34:11;;;;;;;9.55;7.10;;;0.30;99.90;;;;;;4956300;29;20213;-93
2020/12/27 08:36:39;;;;;;;9.73;7.75;;;0.40;99.90;;;;;;4955497;29;20858;-91
2020/12/27 08:39:12;;;;;;;9.13;7.57;;;0.40;99.90;;;;;;4955807;29;20212;-93
2020/12/27 08:41:41;;;;;;;7.80;6.97;;;0.40;99.90;;;;;;4955864;29;20232;-92
2020/12/27 08:44:43;;;;;;;9.10;8.20;;;0.50;99.90;;;;;;4952540;29;20659;-92
2020/12/27 08:47:23;;;;;;;10.60;7.10;;;0.60;99.90;;;;;;4936753;29;20198;-93
2020/12/27 08:49:59;;;;;;;6.60;5.28;;;0.70;99.90;;;;;;4945912;29;20655;-94
2020/12/27 08:52:25;;;;;;;9.25;5.72;;;0.80;99.90;;;;;;4952984;29;20268;-93
2020/12/27 08:54:55;;;;;;;7.10;5.03;;;0.90;99.90;;;;;;4955902;29;20189;-92
2020/12/27 08:57:22;;;;;;;8.23;6.05;;;0.90;99.90;;;;;;4946389;29;20225;-94
2020/12/27 08:59:59;;;;;;;7.53;5.50;;;1.00;99.90;;;;;;4955576;29;20256;-93
2020/12/27 09:02:25;;;;;;;7.47;5.97;;;1.00;99.90;;;;;;4953954;29;20216;-86
2020/12/27 09:05:10;;;;;;;5.70;5.18;;;1.00;99.90;;;;;;4954335;29;20202;-88
2020/12/27 09:07:38;;;;;;;8.00;5.95;;;1.20;99.90;;;;;;4952606;29;20198;-88
2020/12/27 09:10:23;;;;;;;7.25;5.65;;;1.30;99.90;;;;;;4953255;29;20210;-94
2020/12/27 09:13:00;;;;;;;7.13;5.28;;;1.40;99.90;;;;;;4956437;28;20305;-94
2020/12/27 09:15:29;;;;;;;6.63;5.13;;;1.40;99.90;;;;;;4959308;29;20212;-96
2020/12/27 09:17:57;;;;;;;8.57;5.75;;;1.50;99.90;;;;;;4961101;28;20217;-92
2020/12/27 09:20:24;;;;;;;9.05;5.70;;;1.50;99.90;;;;;;4958404;28;20276;-94
2020/12/27 09:22:51;;;;;;;5.70;4.90;;;1.50;99.90;;;;;;4955772;29;20226;-94
2020/12/27 09:25:19;;;;;;;5.40;4.82;;;1.60;99.90;;;;;;4955302;28;20647;-93
2020/12/27 09:27:46;;;;;;;5.85;5.25;;;1.70;99.90;;;;;;4955632;29;20194;-93
2020/12/27 09:30:16;;;;;;;5.53;4.95;;;1.80;99.80;;;;;;4955358;29;20547;-95
2020/12/27 09:32:50;;;;;;;5.15;4.65;;;1.90;99.70;;;;;;4954973;29;20237;-93
2020/12/27 09:35:21;;;;;;;5.45;4.50;;;2.00;99.80;;;;;;4953294;29;20202;-92
2020/12/27 09:37:48;;;;;;;6.10;4.60;;;2.00;99.20;;;;;;4953354;28;20206;-94
2020/12/27 09:40:17;;;;;;;4.85;3.88;;;2.00;98.50;;;;;;4954919;29;20627;-92
2020/12/27 09:42:44;;;;;;;7.90;4.80;;;1.90;98.40;;;;;;4954760;29;20226;-94
2020/12/27 09:45:18;;;;;;;5.40;3.70;;;1.80;98.70;;;;;;4955336;29;20198;-92
2020/12/27 09:47:54;;;;;;;6.15;3.97;;;1.70;99.20;;;;;;4953286;29;20227;-91
2020/12/27 09:50:28;;;;;;;4.22;3.65;;;1.70;99.80;;;;;;4953593;28;20671;-91
2020/12/27 09:52:54;;;;;;;5.60;4.93;;;1.90;99.90;;;;;;4953974;29;20222;-91
2020/12/27 09:55:21;;;;;;;5.72;4.35;;;2.00;99.50;;;;;;4954130;28;20212;-91
2020/12/27 09:57:47;;;;;;;7.10;5.07;;;2.20;99.40;;;;;;4953940;28;20245;-91
2020/12/27 10:00:13;;;;;;;10.50;4.25;;;2.30;98.70;;;;;;4953636;29;20198;-91
2020/12/27 10:02:40;;;;;;;7.20;5.22;;;2.40;98.30;;;;;;4951628;29;20711;-92
2020/12/27 10:05:07;;;;;;;6.20;5.05;;;2.60;98.00;;;;;;4953441;29;20210;-92
2020/12/27 10:07:33;;;;;;;4.90;4.22;;;2.60;97.40;;;;;;4954669;28;20230;-93
2020/12/27 10:10:00;;;;;;;4.63;4.22;;;2.80;97.30;;;;;;4955698;29;20199;-92
2020/12/27 10:12:26;;;;;;;6.25;4.90;;;2.80;96.80;;;;;;4969131;29;20206;-92
2020/12/27 10:14:52;;;;;;;8.52;5.50;;;2.90;96.50;;;;;;4968909;28;20291;-92
2020/12/27 10:17:18;;;;;;;6.80;6.18;;;2.90;96.40;;;;;;4953395;29;20227;-93
2020/12/27 10:19:44;;;;;;;6.10;5.07;;;2.80;96.30;;;;;;4953546;28;20881;-92
2020/12/27 10:22:11;;;;;;;8.73;6.30;;;2.90;96.70;;;;;;4953408;28;20223;-94
2020/12/27 10:24:38;;;;;;;5.55;4.95;;;2.80;96.80;;;;;;4953669;29;20683;-92
2020/12/27 10:27:06;;;;;;;8.27;5.82;;;2.80;96.70;;;;;;4953359;29;20203;-92
2020/12/27 10:29:32;;;;;;;6.88;6.20;;;2.80;96.60;;;;;;4953259;29;20290;-92
2020/12/27 10:32:00;;;;;;;11.33;6.60;;;2.80;96.70;;;;;;4954268;29;20242;-92
2020/12/27 10:34:27;;;;;;;8.95;6.88;;;2.70;96.90;;;;;;4954034;29;20447;-92
2020/12/27 10:36:55;;;;;;;8.10;7.20;;;2.60;97.00;;;;;;4954944;28;20693;-92
2020/12/27 10:39:23;;;;;;;10.68;8.50;;;2.70;97.40;;;;;;4953786;29;20665;-92
2020/12/27 10:41:50;;;;;;;10.25;8.45;;;2.70;97.50;;;;;;4953368;28;20233;-91
2020/12/27 10:44:16;;;;;;;8.52;7.40;;;2.60;97.70;;;;;;4953076;28;20205;-92
2020/12/27 10:46:43;;;;;;;10.70;7.95;;;2.60;97.90;;;;;;4955051;29;20631;-92
2020/12/27 10:49:09;;;;;;;8.07;7.25;;;2.60;98.00;;;;;;4955706;28;20206;-93
2020/12/27 10:51:36;;;;;;;11.10;8.15;;;2.70;97.80;;;;;;4958578;29;20231;-93
2020/12/27 10:54:03;;;;;;;8.80;7.90;;;2.80;97.80;;;;;;4958186;28;20196;-94
2020/12/27 10:56:30;;;;;;;9.33;8.00;;;2.80;97.80;;;;;;4957879;29;20242;-91
2020/12/27 10:58:56;;;;;;;11.18;8.75;;;2.80;98.00;;;;;;4957724;29;20448;-92
2020/12/27 11:01:23;;;;;;;8.43;7.45;;;2.70;98.30;;;;;;4957499;29;20234;-92
2020/12/27 11:03:49;;;;;;;8.70;7.80;;;2.60;98.00;;;;;;4957331;28;20207;-92
2020/12/27 11:06:16;;;;;;;13.35;7.72;;;2.60;98.20;;;;;;4957163;28;20838;-94
2020/12/27 11:08:42;;;;;;;7.97;7.18;;;2.70;98.10;;;;;;4957835;28;20211;-92
2020/12/27 11:11:09;;;;;;;9.35;7.80;;;2.60;98.20;;;;;;4957528;29;20232;-93
2020/12/27 11:13:36;;;;;;;10.35;8.73;;;2.60;98.40;;;;;;4957403;28;20210;-93
2020/12/27 11:16:03;;;;;;;11.40;8.95;;;2.60;98.50;;;;;;4956858;28;20632;-94
2020/12/27 11:18:31;;;;;;;8.13;7.28;;;2.60;98.40;;;;;;4957904;29;20686;-93
2020/12/27 11:20:57;;;;;;;10.70;9.15;;;2.60;98.90;;;;;;4958778;29;20207;-95
2020/12/27 11:23:24;;;;;;;9.60;8.63;;;2.60;98.60;;;;;;4961233;29;20195;-92
2020/12/27 11:25:50;;;;;;;8.85;7.95;;;2.70;98.50;;;;;;4958301;29;20214;-94
2020/12/27 11:28:16;;;;;;;8.70;7.00;;;2.70;98.60;;;;;;4958847;29;20256;-92
2020/12/27 11:30:43;;;;;;;12.18;8.30;;;2.70;98.40;;;;;;4960126;28;20842;-93
2020/12/27 11:33:11;;;;;;;16.92;9.02;;;2.60;98.40;;;;;;4961317;29;20217;-91
2020/12/27 11:35:37;;;;;;;10.85;7.82;;;2.70;98.70;;;;;;4967449;29;20232;-93
2020/12/27 11:38:04;;;;;;;8.10;7.30;;;2.70;98.50;;;;;;4966419;29;20226;-91
2020/12/27 11:40:30;;;;;;;11.43;7.32;;;2.60;98.70;;;;;;4967325;28;20217;-91
2020/12/27 11:42:56;;;;;;;7.43;6.55;;;2.70;98.70;;;;;;4963676;29;20761;-93
2020/12/27 11:45:22;;;;;;;7.95;7.15;;;2.70;98.80;;;;;;4957660;29;20212;-93
2020/12/27 11:47:49;;;;;;;9.02;8.13;;;2.70;98.90;;;;;;4958442;28;20265;-93
2020/12/27 11:50:15;;;;;;;10.10;8.02;;;2.70;99.20;;;;;;4959284;29;20211;-92
2020/12/27 11:52:41;;;;;;;7.63;6.78;;;2.60;99.20;;;;;;4958295;28;20235;-93
2020/12/27 11:55:08;;;;;;;9.25;7.30;;;2.70;99.30;;;;;;4960927;29;20657;-94
2020/12/27 11:57:34;;;;;;;7.63;6.38;;;2.80;99.50;;;;;;4957948;29;20227;-93
2020/12/27 12:00:01;;;;;;;7.23;6.53;;;2.90;99.40;;;;;;4957293;28;20309;-93
2020/12/27 12:02:27;;;;;;;6.65;5.95;;;2.90;99.20;;;;;;4957306;28;21047;-93
2020/12/27 12:04:55;;;;;;;12.00;6.63;;;3.00;99.20;;;;;;4956896;29;20215;-94
2020/12/27 12:07:21;;;;;;;6.67;5.97;;;2.90;99.20;;;;;;4957290;29;20465;-95
2020/12/27 12:09:47;;;;;;;8.13;6.70;;;3.00;99.10;;;;;;4957835;29;20464;-94
2020/12/27 12:12:13;;;;;;;7.00;6.00;;;2.90;99.40;;;;;;4957586;28;20482;-95
2020/12/27 12:14:42;;;;;;;7.70;5.83;;;3.00;99.40;;;;;;4957312;28;20219;-93
2020/12/27 12:17:08;;;;;;;7.93;5.78;;;3.10;99.10;;;;;;4956815;28;20475;-94
2020/12/27 12:19:34;;;;;;;7.57;6.77;;;3.10;99.40;;;;;;4956798;28;20227;-95
2020/12/27 12:22:01;;;;;;;8.50;6.90;;;3.10;99.30;;;;;;4956850;29;21151;-94
2020/12/27 12:24:28;;;;;;;10.13;7.00;;;3.30;99.40;;;;;;4957731;29;20452;-91
2020/12/27 12:26:54;;;;;;;7.30;6.33;;;3.20;99.60;;;;;;4960513;28;20446;-93
2020/12/27 12:29:20;;;;;;;7.60;6.80;;;3.30;99.60;;;;;;4966727;28;20419;-91
2020/12/27 12:31:46;;;;;;;9.63;6.60;;;3.30;99.20;;;;;;4979459;28;20224;-91
2020/12/27 12:34:12;;;;;;;6.97;6.07;;;3.30;99.20;;;;;;4958436;29;20468;-92
2020/12/27 12:36:39;;;;;;;9.43;6.43;;;3.40;99.40;;;;;;4955625;28;20491;-92
2020/12/27 12:39:06;;;;;;;6.90;6.20;;;3.50;99.40;;;;;;4956472;29;20467;-92
2020/12/27 12:41:33;;;;;;;7.70;5.57;;;3.40;99.20;;;;;;4955960;28;20500;-93
2020/12/27 12:43:59;;;;;;;6.50;5.67;;;3.50;99.10;;;;;;4956186;29;20463;-91
2020/12/27 12:46:26;;;;;;;6.13;5.53;;;3.50;98.90;;;;;;4955878;29;20456;-93
2020/12/27 12:48:54;;;;;;;6.10;5.50;;;3.50;99.20;;;;;;4955989;29;20456;-91
2020/12/27 12:51:21;;;;;;;6.67;5.27;;;3.60;99.20;;;;;;4955669;29;20460;-93
2020/12/27 12:53:47;;;;;;;8.80;6.67;;;3.60;98.90;;;;;;4955984;29;20461;-93
2020/12/27 12:56:14;;;;;;;6.27;5.40;;;3.60;98.90;;;;;;4956888;28;20441;-93
2020/12/27 12:58:40;;;;;;;7.40;4.83;;;3.60;98.90;;;;;;4955771;29;20461;-91